sensor_id;sensor_type;location;lat;lon;timestamp;temperature;humidity
11091;DHT22;5599;52.210;21.046;2023-06-22T00:01:06;23.00;1.00
11091;DHT22;5599;52.210;21.046;2023-06-22T00:03:36;22.90;1.00
11091;DHT22;5599;52.210;21.046;2023-06-22T00:06:06;22.90;1.00
11091;DHT22;5599;52.210;21.046;2023-06-22T00:08:36;22.90;1.00
11091;DHT22;5599;52.210;21.046;2023-06-22T00:11:05;22.80;1.00
11091;DHT22;5599;52.210;21.046;2023-06-22T00:13:34;22.80;40.10
11091;DHT22;5599;52.210;21.046;2023-06-22T00:16:04;22.80;34.40
11091;DHT22;5599;52.210;21.046;2023-06-22T00:18:33;22.80;78.80
11091;DHT22;5599;52.210;21.046;2023-06-22T00:21:03;22.80;92.70
11091;DHT22;5599;52.210;21.046;2023-06-22T00:23:35;22.80;99.90
11091;DHT22;5599;52.210;21.046;2023-06-22T00:26:04;22.70;98.10
11091;DHT22;5599;52.210;21.046;2023-06-22T00:28:34;22.70;90.40
11091;DHT22;5599;52.210;21.046;2023-06-22T00:31:03;22.60;99.90
11091;DHT22;5599;52.210;21.046;2023-06-22T00:33:32;22.60;68.70
11091;DHT22;5599;52.210;21.046;2023-06-22T00:36:05;22.60;95.10
11091;DHT22;5599;52.210;21.046;2023-06-22T00:38:39;22.60;75.60
11091;DHT22;5599;52.210;21.046;2023-06-22T00:41:08;22.50;56.80
11091;DHT22;5599;52.210;21.046;2023-06-22T00:43:37;22.50;99.90
11091;DHT22;5599;52.210;21.046;2023-06-22T00:46:08;22.60;90.40
11091;DHT22;5599;52.210;21.046;2023-06-22T00:48:37;22.50;94.80
11091;DHT22;5599;52.210;21.046;2023-06-22T00:51:10;22.40;99.90
11091;DHT22;5599;52.210;21.046;2023-06-22T00:53:41;22.40;99.90
11091;DHT22;5599;52.210;21.046;2023-06-22T00:56:11;22.30;99.90
11091;DHT22;5599;52.210;21.046;2023-06-22T00:58:40;22.30;99.90
11091;DHT22;5599;52.210;21.046;2023-06-22T01:01:10;22.20;99.90
11091;DHT22;5599;52.210;21.046;2023-06-22T01:03:39;22.20;99.90
11091;DHT22;5599;52.210;21.046;2023-06-22T01:06:13;22.20;99.90
11091;DHT22;5599;52.210;21.046;2023-06-22T01:08:51;22.20;99.90
11091;DHT22;5599;52.210;21.046;2023-06-22T01:11:25;22.20;99.90
11091;DHT22;5599;52.210;21.046;2023-06-22T01:14:02;22.20;99.90
11091;DHT22;5599;52.210;21.046;2023-06-22T01:16:33;22.20;99.90
11091;DHT22;5599;52.210;21.046;2023-06-22T01:19:20;22.20;99.90
11091;DHT22;5599;52.210;21.046;2023-06-22T01:21:56;22.20;99.90
11091;DHT22;5599;52.210;21.046;2023-06-22T01:24:33;22.20;99.90
11091;DHT22;5599;52.210;21.046;2023-06-22T01:27:26;22.10;99.90
11091;DHT22;5599;52.210;21.046;2023-06-22T01:29:59;22.20;99.90
11091;DHT22;5599;52.210;21.046;2023-06-22T01:32:31;22.10;99.90
11091;DHT22;5599;52.210;21.046;2023-06-22T01:35:04;22.00;99.90
11091;DHT22;5599;52.210;21.046;2023-06-22T01:37:35;22.00;99.90
11091;DHT22;5599;52.210;21.046;2023-06-22T01:40:07;22.00;99.90
11091;DHT22;5599;52.210;21.046;2023-06-22T01:42:37;22.10;99.90
11091;DHT22;5599;52.210;21.046;2023-06-22T01:45:10;22.00;99.90
11091;DHT22;5599;52.210;21.046;2023-06-22T01:47:40;22.10;99.90
11091;DHT22;5599;52.210;21.046;2023-06-22T01:50:11;22.00;99.90
11091;DHT22;5599;52.210;21.046;2023-06-22T01:52:40;22.00;99.90
11091;DHT22;5599;52.210;21.046;2023-06-22T01:55:09;22.00;99.90
11091;DHT22;5599;52.210;21.046;2023-06-22T01:57:39;22.10;99.90
11091;DHT22;5599;52.210;21.046;2023-06-22T02:00:13;22.00;99.90
11091;DHT22;5599;52.210;21.046;2023-06-22T02:02:49;22.00;99.90
11091;DHT22;5599;52.210;21.046;2023-06-22T02:05:20;22.00;99.90
11091;DHT22;5599;52.210;21.046;2023-06-22T02:07:59;22.00;99.90
11091;DHT22;5599;52.210;21.046;2023-06-22T02:10:31;22.00;99.90
11091;DHT22;5599;52.210;21.046;2023-06-22T02:13:03;22.00;99.90
11091;DHT22;5599;52.210;21.046;2023-06-22T02:15:35;21.90;99.90
11091;DHT22;5599;52.210;21.046;2023-06-22T02:18:04;21.90;99.90
11091;DHT22;5599;52.210;21.046;2023-06-22T02:20:36;21.90;99.90
11091;DHT22;5599;52.210;21.046;2023-06-22T02:23:06;21.90;99.90
11091;DHT22;5599;52.210;21.046;2023-06-22T02:25:36;21.90;99.90
11091;DHT22;5599;52.210;21.046;2023-06-22T02:28:05;21.80;99.90
11091;DHT22;5599;52.210;21.046;2023-06-22T02:30:35;21.80;99.90
11091;DHT22;5599;52.210;21.046;2023-06-22T02:33:07;21.80;99.90
11091;DHT22;5599;52.210;21.046;2023-06-22T02:35:37;21.80;99.90
11091;DHT22;5599;52.210;21.046;2023-06-22T02:38:07;21.70;99.90
11091;DHT22;5599;52.210;21.046;2023-06-22T02:40:36;21.80;99.90
11091;DHT22;5599;52.210;21.046;2023-06-22T02:43:05;21.80;99.90
11091;DHT22;5599;52.210;21.046;2023-06-22T02:45:36;21.70;99.90
11091;DHT22;5599;52.210;21.046;2023-06-22T02:48:05;21.70;99.90
11091;DHT22;5599;52.210;21.046;2023-06-22T02:50:34;21.70;99.90
11091;DHT22;5599;52.210;21.046;2023-06-22T02:53:05;21.70;99.90
11091;DHT22;5599;52.210;21.046;2023-06-22T02:55:37;21.80;99.90
11091;DHT22;5599;52.210;21.046;2023-06-22T02:58:08;21.70;99.90
11091;DHT22;5599;52.210;21.046;2023-06-22T03:00:39;21.80;99.90
11091;DHT22;5599;52.210;21.046;2023-06-22T03:03:09;21.80;99.90
11091;DHT22;5599;52.210;21.046;2023-06-22T03:05:38;21.80;99.90
11091;DHT22;5599;52.210;21.046;2023-06-22T03:08:08;21.80;99.90
11091;DHT22;5599;52.210;21.046;2023-06-22T03:10:37;21.90;99.90
11091;DHT22;5599;52.210;21.046;2023-06-22T03:13:06;21.90;99.90
11091;DHT22;5599;52.210;21.046;2023-06-22T03:15:36;21.90;99.90
11091;DHT22;5599;52.210;21.046;2023-06-22T03:18:08;21.90;99.90
11091;DHT22;5599;52.210;21.046;2023-06-22T03:20:37;22.00;99.90
11091;DHT22;5599;52.210;21.046;2023-06-22T03:23:08;22.00;99.90
11091;DHT22;5599;52.210;21.046;2023-06-22T03:25:38;22.10;99.90
11091;DHT22;5599;52.210;21.046;2023-06-22T03:28:07;22.00;99.90
11091;DHT22;5599;52.210;21.046;2023-06-22T03:30:36;22.00;99.90
11091;DHT22;5599;52.210;21.046;2023-06-22T03:33:07;22.10;99.90
11091;DHT22;5599;52.210;21.046;2023-06-22T03:35:36;22.10;99.90
11091;DHT22;5599;52.210;21.046;2023-06-22T03:38:06;22.10;99.90
11091;DHT22;5599;52.210;21.046;2023-06-22T03:40:35;22.10;99.90
11091;DHT22;5599;52.210;21.046;2023-06-22T03:43:04;22.20;99.90
11091;DHT22;5599;52.210;21.046;2023-06-22T03:45:33;22.20;99.90
11091;DHT22;5599;52.210;21.046;2023-06-22T03:48:03;22.20;99.90
11091;DHT22;5599;52.210;21.046;2023-06-22T03:50:34;22.30;99.90
11091;DHT22;5599;52.210;21.046;2023-06-22T03:53:03;22.50;99.90
11091;DHT22;5599;52.210;21.046;2023-06-22T03:55:34;22.50;99.90
11091;DHT22;5599;52.210;21.046;2023-06-22T03:58:04;22.50;99.90
11091;DHT22;5599;52.210;21.046;2023-06-22T04:00:33;22.60;99.90
11091;DHT22;5599;52.210;21.046;2023-06-22T04:03:02;22.60;99.90
11091;DHT22;5599;52.210;21.046;2023-06-22T04:05:33;22.70;99.90
11091;DHT22;5599;52.210;21.046;2023-06-22T04:08:02;22.80;99.90
11091;DHT22;5599;52.210;21.046;2023-06-22T04:10:31;22.90;99.90
11091;DHT22;5599;52.210;21.046;2023-06-22T04:13:00;23.00;99.90
11091;DHT22;5599;52.210;21.046;2023-06-22T04:15:30;23.00;99.90
11091;DHT22;5599;52.210;21.046;2023-06-22T04:17:59;23.10;99.90
11091;DHT22;5599;52.210;21.046;2023-06-22T04:20:28;23.20;99.90
11091;DHT22;5599;52.210;21.046;2023-06-22T04:23:01;23.40;99.90
11091;DHT22;5599;52.210;21.046;2023-06-22T04:25:30;23.50;97.70
11091;DHT22;5599;52.210;21.046;2023-06-22T04:27:59;23.60;92.20
11091;DHT22;5599;52.210;21.046;2023-06-22T04:30:33;23.70;65.70
11091;DHT22;5599;52.210;21.046;2023-06-22T04:33:02;24.00;39.90
11091;DHT22;5599;52.210;21.046;2023-06-22T04:35:31;24.20;1.00
11091;DHT22;5599;52.210;21.046;2023-06-22T04:38:02;24.30;1.00
11091;DHT22;5599;52.210;21.046;2023-06-22T04:40:31;24.50;1.00
11091;DHT22;5599;52.210;21.046;2023-06-22T04:43:00;24.90;1.00
11091;DHT22;5599;52.210;21.046;2023-06-22T04:45:30;25.10;1.00
11091;DHT22;5599;52.210;21.046;2023-06-22T04:47:59;25.20;1.00
11091;DHT22;5599;52.210;21.046;2023-06-22T04:50:28;25.30;1.00
11091;DHT22;5599;52.210;21.046;2023-06-22T04:52:58;25.30;1.00
11091;DHT22;5599;52.210;21.046;2023-06-22T04:55:28;25.30;1.00
11091;DHT22;5599;52.210;21.046;2023-06-22T04:57:58;25.30;1.00
11091;DHT22;5599;52.210;21.046;2023-06-22T05:00:32;25.30;1.00
11091;DHT22;5599;52.210;21.046;2023-06-22T05:03:03;25.20;1.00
11091;DHT22;5599;52.210;21.046;2023-06-22T05:05:46;25.20;1.00
11091;DHT22;5599;52.210;21.046;2023-06-22T05:08:15;25.00;1.00
11091;DHT22;5599;52.210;21.046;2023-06-22T05:10:46;25.00;1.00
11091;DHT22;5599;52.210;21.046;2023-06-22T05:13:31;25.00;1.00
11091;DHT22;5599;52.210;21.046;2023-06-22T05:16:00;24.90;1.00
11091;DHT22;5599;52.210;21.046;2023-06-22T05:18:31;24.80;1.00
11091;DHT22;5599;52.210;21.046;2023-06-22T05:21:00;24.80;1.00
11091;DHT22;5599;52.210;21.046;2023-06-22T05:23:29;24.60;1.00
11091;DHT22;5599;52.210;21.046;2023-06-22T05:26:00;24.70;1.00
11091;DHT22;5599;52.210;21.046;2023-06-22T05:28:29;24.80;1.00
11091;DHT22;5599;52.210;21.046;2023-06-22T05:30:58;24.80;1.00
11091;DHT22;5599;52.210;21.046;2023-06-22T05:33:27;24.80;1.00
11091;DHT22;5599;52.210;21.046;2023-06-22T05:35:57;24.80;1.00
11091;DHT22;5599;52.210;21.046;2023-06-22T05:38:26;24.90;1.00
11091;DHT22;5599;52.210;21.046;2023-06-22T05:40:55;24.90;1.00
11091;DHT22;5599;52.210;21.046;2023-06-22T05:43:26;24.90;1.00
11091;DHT22;5599;52.210;21.046;2023-06-22T05:45:55;25.00;1.00
11091;DHT22;5599;52.210;21.046;2023-06-22T05:48:24;25.00;1.00
11091;DHT22;5599;52.210;21.046;2023-06-22T05:50:54;24.80;1.00
11091;DHT22;5599;52.210;21.046;2023-06-22T05:53:23;24.70;1.00
11091;DHT22;5599;52.210;21.046;2023-06-22T05:55:52;24.80;1.00
11091;DHT22;5599;52.210;21.046;2023-06-22T05:58:21;24.70;1.00
11091;DHT22;5599;52.210;21.046;2023-06-22T06:00:52;24.80;1.00
11091;DHT22;5599;52.210;21.046;2023-06-22T06:03:21;24.80;1.00
11091;DHT22;5599;52.210;21.046;2023-06-22T06:05:50;24.80;1.00
11091;DHT22;5599;52.210;21.046;2023-06-22T06:08:20;24.80;1.00
11091;DHT22;5599;52.210;21.046;2023-06-22T06:10:49;24.80;1.00
11091;DHT22;5599;52.210;21.046;2023-06-22T06:13:20;24.70;1.00
11091;DHT22;5599;52.210;21.046;2023-06-22T06:15:49;24.70;1.00
11091;DHT22;5599;52.210;21.046;2023-06-22T06:18:23;24.70;1.00
11091;DHT22;5599;52.210;21.046;2023-06-22T06:20:53;24.80;1.00
11091;DHT22;5599;52.210;21.046;2023-06-22T06:23:22;24.90;1.00
11091;DHT22;5599;52.210;21.046;2023-06-22T06:25:51;24.70;1.00
11091;DHT22;5599;52.210;21.046;2023-06-22T06:28:21;24.70;1.00
11091;DHT22;5599;52.210;21.046;2023-06-22T06:30:51;24.70;1.00
11091;DHT22;5599;52.210;21.046;2023-06-22T06:33:20;24.80;1.00
11091;DHT22;5599;52.210;21.046;2023-06-22T06:35:54;25.00;1.00
11091;DHT22;5599;52.210;21.046;2023-06-22T06:38:23;25.00;1.00
11091;DHT22;5599;52.210;21.046;2023-06-22T06:40:53;25.00;1.00
11091;DHT22;5599;52.210;21.046;2023-06-22T06:43:23;25.10;1.00
11091;DHT22;5599;52.210;21.046;2023-06-22T06:45:52;25.20;1.00
11091;DHT22;5599;52.210;21.046;2023-06-22T06:48:22;25.20;1.00
11091;DHT22;5599;52.210;21.046;2023-06-22T06:50:51;25.20;1.00
11091;DHT22;5599;52.210;21.046;2023-06-22T06:53:22;25.30;1.00
11091;DHT22;5599;52.210;21.046;2023-06-22T06:55:51;25.40;1.00
11091;DHT22;5599;52.210;21.046;2023-06-22T06:58:20;25.60;99.90
11091;DHT22;5599;52.210;21.046;2023-06-22T07:00:50;25.80;99.90
11091;DHT22;5599;52.210;21.046;2023-06-22T07:03:21;25.80;99.90
11091;DHT22;5599;52.210;21.046;2023-06-22T07:05:54;25.90;99.90
11091;DHT22;5599;52.210;21.046;2023-06-22T07:08:25;25.90;1.00
11091;DHT22;5599;52.210;21.046;2023-06-22T07:10:55;26.10;99.90
11091;DHT22;5599;52.210;21.046;2023-06-22T07:13:24;26.10;1.00
11091;DHT22;5599;52.210;21.046;2023-06-22T07:15:54;26.30;1.00
11091;DHT22;5599;52.210;21.046;2023-06-22T07:18:23;26.70;99.90
11091;DHT22;5599;52.210;21.046;2023-06-22T07:20:54;27.10;99.90
11091;DHT22;5599;52.210;21.046;2023-06-22T07:23:25;27.40;1.00
11091;DHT22;5599;52.210;21.046;2023-06-22T07:25:54;27.70;99.90
11091;DHT22;5599;52.210;21.046;2023-06-22T07:28:23;27.80;99.90
11091;DHT22;5599;52.210;21.046;2023-06-22T07:30:52;28.00;1.00
11091;DHT22;5599;52.210;21.046;2023-06-22T07:33:21;28.40;1.00
11091;DHT22;5599;52.210;21.046;2023-06-22T07:35:50;29.00;99.90
11091;DHT22;5599;52.210;21.046;2023-06-22T07:38:20;29.60;1.00
11091;DHT22;5599;52.210;21.046;2023-06-22T07:40:50;30.00;1.00
11091;DHT22;5599;52.210;21.046;2023-06-22T07:43:21;30.50;99.90
11091;DHT22;5599;52.210;21.046;2023-06-22T07:45:50;31.10;1.00
11091;DHT22;5599;52.210;21.046;2023-06-22T07:48:21;31.60;1.00
11091;DHT22;5599;52.210;21.046;2023-06-22T07:50:50;31.90;1.00
11091;DHT22;5599;52.210;21.046;2023-06-22T07:53:21;32.30;1.00
11091;DHT22;5599;52.210;21.046;2023-06-22T07:55:52;32.70;1.00
11091;DHT22;5599;52.210;21.046;2023-06-22T07:58:21;33.20;1.00
11091;DHT22;5599;52.210;21.046;2023-06-22T08:00:50;33.40;1.00
11091;DHT22;5599;52.210;21.046;2023-06-22T08:03:19;33.80;1.00
11091;DHT22;5599;52.210;21.046;2023-06-22T08:05:49;34.20;1.00
11091;DHT22;5599;52.210;21.046;2023-06-22T08:08:18;34.50;1.00
11091;DHT22;5599;52.210;21.046;2023-06-22T08:10:47;35.00;99.90
11091;DHT22;5599;52.210;21.046;2023-06-22T08:13:18;35.40;1.00
11091;DHT22;5599;52.210;21.046;2023-06-22T08:15:48;35.40;1.00
11091;DHT22;5599;52.210;21.046;2023-06-22T08:18:17;35.70;1.00
11091;DHT22;5599;52.210;21.046;2023-06-22T08:20:46;36.00;1.00
11091;DHT22;5599;52.210;21.046;2023-06-22T08:23:15;36.10;1.00
11091;DHT22;5599;52.210;21.046;2023-06-22T08:25:45;36.40;1.00
11091;DHT22;5599;52.210;21.046;2023-06-22T08:28:15;36.40;1.00
11091;DHT22;5599;52.210;21.046;2023-06-22T08:30:46;36.40;1.00
11091;DHT22;5599;52.210;21.046;2023-06-22T08:33:15;36.70;1.00
11091;DHT22;5599;52.210;21.046;2023-06-22T08:35:55;37.00;1.00
11091;DHT22;5599;52.210;21.046;2023-06-22T08:38:24;37.20;1.00
11091;DHT22;5599;52.210;21.046;2023-06-22T08:40:53;37.50;1.00
11091;DHT22;5599;52.210;21.046;2023-06-22T08:43:23;37.50;1.00
11091;DHT22;5599;52.210;21.046;2023-06-22T08:45:53;37.50;1.00
11091;DHT22;5599;52.210;21.046;2023-06-22T08:48:22;37.60;1.00
11091;DHT22;5599;52.210;21.046;2023-06-22T08:50:52;37.80;1.00
11091;DHT22;5599;52.210;21.046;2023-06-22T08:53:21;37.90;1.00
11091;DHT22;5599;52.210;21.046;2023-06-22T08:55:50;37.90;1.00
11091;DHT22;5599;52.210;21.046;2023-06-22T08:58:19;37.80;99.90
11091;DHT22;5599;52.210;21.046;2023-06-22T09:00:49;38.00;1.00
11091;DHT22;5599;52.210;21.046;2023-06-22T09:03:20;37.90;1.00
11091;DHT22;5599;52.210;21.046;2023-06-22T09:05:54;37.80;99.90
11091;DHT22;5599;52.210;21.046;2023-06-22T09:08:24;37.50;1.00
11091;DHT22;5599;52.210;21.046;2023-06-22T09:10:53;37.10;1.00
11091;DHT22;5599;52.210;21.046;2023-06-22T09:13:22;37.00;1.00
11091;DHT22;5599;52.210;21.046;2023-06-22T09:15:52;36.60;1.00
11091;DHT22;5599;52.210;21.046;2023-06-22T09:18:23;36.60;1.00
11091;DHT22;5599;52.210;21.046;2023-06-22T09:20:52;36.60;1.00
11091;DHT22;5599;52.210;21.046;2023-06-22T09:23:21;36.70;1.00
11091;DHT22;5599;52.210;21.046;2023-06-22T09:25:51;36.60;99.90
11091;DHT22;5599;52.210;21.046;2023-06-22T09:28:20;36.50;99.90
11091;DHT22;5599;52.210;21.046;2023-06-22T09:30:50;36.30;1.00
11091;DHT22;5599;52.210;21.046;2023-06-22T09:33:19;36.50;99.90
11091;DHT22;5599;52.210;21.046;2023-06-22T09:35:50;36.60;1.00
11091;DHT22;5599;52.210;21.046;2023-06-22T09:38:19;36.70;1.00
11091;DHT22;5599;52.210;21.046;2023-06-22T09:40:48;36.70;10.50
11091;DHT22;5599;52.210;21.046;2023-06-22T09:43:18;36.50;1.00
11091;DHT22;5599;52.210;21.046;2023-06-22T09:45:47;36.50;1.00
11091;DHT22;5599;52.210;21.046;2023-06-22T09:48:16;36.70;1.00
11091;DHT22;5599;52.210;21.046;2023-06-22T09:50:46;36.90;1.00
11091;DHT22;5599;52.210;21.046;2023-06-22T09:53:17;36.70;1.00
11091;DHT22;5599;52.210;21.046;2023-06-22T09:55:46;36.60;1.00
11091;DHT22;5599;52.210;21.046;2023-06-22T09:58:15;36.70;1.00
11091;DHT22;5599;52.210;21.046;2023-06-22T10:00:44;36.60;1.00
11091;DHT22;5599;52.210;21.046;2023-06-22T10:03:14;36.70;1.00
11091;DHT22;5599;52.210;21.046;2023-06-22T10:05:43;36.70;1.00
11091;DHT22;5599;52.210;21.046;2023-06-22T10:08:13;36.50;99.90
11091;DHT22;5599;52.210;21.046;2023-06-22T10:10:44;36.40;1.00
11091;DHT22;5599;52.210;21.046;2023-06-22T10:13:13;36.30;99.90
11091;DHT22;5599;52.210;21.046;2023-06-22T10:15:42;36.30;99.90
11091;DHT22;5599;52.210;21.046;2023-06-22T10:18:17;36.30;99.90
11091;DHT22;5599;52.210;21.046;2023-06-22T10:20:49;36.30;1.00
11091;DHT22;5599;52.210;21.046;2023-06-22T10:23:19;36.10;1.00
11091;DHT22;5599;52.210;21.046;2023-06-22T10:25:50;35.70;99.90
11091;DHT22;5599;52.210;21.046;2023-06-22T10:28:19;35.70;99.90
11091;DHT22;5599;52.210;21.046;2023-06-22T10:30:49;35.80;1.00
11091;DHT22;5599;52.210;21.046;2023-06-22T10:33:18;35.80;99.90
11091;DHT22;5599;52.210;21.046;2023-06-22T10:35:48;35.80;99.90
11091;DHT22;5599;52.210;21.046;2023-06-22T10:38:17;35.80;1.00
11091;DHT22;5599;52.210;21.046;2023-06-22T10:40:46;35.70;99.90
11091;DHT22;5599;52.210;21.046;2023-06-22T10:43:17;35.60;1.00
11091;DHT22;5599;52.210;21.046;2023-06-22T10:45:46;35.50;1.00
11091;DHT22;5599;52.210;21.046;2023-06-22T10:48:16;35.50;1.00
11091;DHT22;5599;52.210;21.046;2023-06-22T10:50:46;35.60;1.00
11091;DHT22;5599;52.210;21.046;2023-06-22T10:53:15;35.40;99.90
11091;DHT22;5599;52.210;21.046;2023-06-22T10:55:44;35.30;99.90
11091;DHT22;5599;52.210;21.046;2023-06-22T10:58:25;35.30;99.90
11091;DHT22;5599;52.210;21.046;2023-06-22T11:00:54;35.40;99.90
11091;DHT22;5599;52.210;21.046;2023-06-22T11:03:23;35.10;1.00
11091;DHT22;5599;52.210;21.046;2023-06-22T11:05:53;35.00;99.90
11091;DHT22;5599;52.210;21.046;2023-06-22T11:08:22;34.80;99.90
11091;DHT22;5599;52.210;21.046;2023-06-22T11:10:51;34.80;99.90
11091;DHT22;5599;52.210;21.046;2023-06-22T11:13:21;34.80;99.90
11091;DHT22;5599;52.210;21.046;2023-06-22T11:15:51;34.80;99.90
11091;DHT22;5599;52.210;21.046;2023-06-22T11:18:21;34.80;99.90
11091;DHT22;5599;52.210;21.046;2023-06-22T11:20:50;34.80;99.90
11091;DHT22;5599;52.210;21.046;2023-06-22T11:23:20;34.80;99.90
11091;DHT22;5599;52.210;21.046;2023-06-22T11:25:50;34.50;99.90
11091;DHT22;5599;52.210;21.046;2023-06-22T11:28:21;34.00;99.90
11091;DHT22;5599;52.210;21.046;2023-06-22T11:30:52;33.80;1.00
11091;DHT22;5599;52.210;21.046;2023-06-22T11:33:21;33.90;1.00
11091;DHT22;5599;52.210;21.046;2023-06-22T11:35:50;34.10;99.90
11091;DHT22;5599;52.210;21.046;2023-06-22T11:38:19;34.20;1.00
11091;DHT22;5599;52.210;21.046;2023-06-22T11:40:49;34.40;99.90
11091;DHT22;5599;52.210;21.046;2023-06-22T11:43:18;34.60;99.90
11091;DHT22;5599;52.210;21.046;2023-06-22T11:45:47;34.60;1.00
11091;DHT22;5599;52.210;21.046;2023-06-22T11:48:18;34.70;52.70
11091;DHT22;5599;52.210;21.046;2023-06-22T11:50:47;34.80;1.00
11091;DHT22;5599;52.210;21.046;2023-06-22T11:53:17;34.90;1.00
11091;DHT22;5599;52.210;21.046;2023-06-22T11:55:46;35.10;1.00
11091;DHT22;5599;52.210;21.046;2023-06-22T11:58:16;35.00;1.00
11091;DHT22;5599;52.210;21.046;2023-06-22T12:00:46;35.10;1.00
11091;DHT22;5599;52.210;21.046;2023-06-22T12:03:20;35.10;99.90
11091;DHT22;5599;52.210;21.046;2023-06-22T12:05:50;35.20;99.90
11091;DHT22;5599;52.210;21.046;2023-06-22T12:08:20;35.00;99.90
11091;DHT22;5599;52.210;21.046;2023-06-22T12:10:50;35.00;99.90
11091;DHT22;5599;52.210;21.046;2023-06-22T12:13:19;34.90;1.00
11091;DHT22;5599;52.210;21.046;2023-06-22T12:15:49;34.70;99.90
11091;DHT22;5599;52.210;21.046;2023-06-22T12:18:21;34.80;99.90
11091;DHT22;5599;52.210;21.046;2023-06-22T12:20:50;34.70;1.00
11091;DHT22;5599;52.210;21.046;2023-06-22T12:23:20;34.80;1.00
11091;DHT22;5599;52.210;21.046;2023-06-22T12:25:49;34.60;99.90
11091;DHT22;5599;52.210;21.046;2023-06-22T12:28:18;34.60;99.90
11091;DHT22;5599;52.210;21.046;2023-06-22T12:30:47;34.70;1.00
11091;DHT22;5599;52.210;21.046;2023-06-22T12:33:17;34.50;1.00
11091;DHT22;5599;52.210;21.046;2023-06-22T12:35:47;34.30;99.90
11091;DHT22;5599;52.210;21.046;2023-06-22T12:38:17;34.40;1.00
11091;DHT22;5599;52.210;21.046;2023-06-22T12:40:47;34.20;1.00
11091;DHT22;5599;52.210;21.046;2023-06-22T12:43:17;34.20;1.00
11091;DHT22;5599;52.210;21.046;2023-06-22T12:45:52;34.10;1.00
11091;DHT22;5599;52.210;21.046;2023-06-22T12:48:29;34.20;1.00
11091;DHT22;5599;52.210;21.046;2023-06-22T12:51:00;33.80;1.00
11091;DHT22;5599;52.210;21.046;2023-06-22T12:53:30;33.80;1.00
11091;DHT22;5599;52.210;21.046;2023-06-22T12:55:59;33.80;1.00
11091;DHT22;5599;52.210;21.046;2023-06-22T12:58:29;33.90;1.00
11091;DHT22;5599;52.210;21.046;2023-06-22T13:00:58;33.80;99.90
11091;DHT22;5599;52.210;21.046;2023-06-22T13:03:27;34.00;1.00
11091;DHT22;5599;52.210;21.046;2023-06-22T13:05:58;34.10;99.90
11091;DHT22;5599;52.210;21.046;2023-06-22T13:08:28;34.00;99.90
11091;DHT22;5599;52.210;21.046;2023-06-22T13:11:17;33.90;99.90
11091;DHT22;5599;52.210;21.046;2023-06-22T13:13:48;33.70;99.90
11091;DHT22;5599;52.210;21.046;2023-06-22T13:16:17;33.50;1.00
11091;DHT22;5599;52.210;21.046;2023-06-22T13:18:47;33.20;99.90
11091;DHT22;5599;52.210;21.046;2023-06-22T13:21:18;33.30;99.90
11091;DHT22;5599;52.210;21.046;2023-06-22T13:23:47;33.30;99.90
11091;DHT22;5599;52.210;21.046;2023-06-22T13:26:17;33.10;99.90
11091;DHT22;5599;52.210;21.046;2023-06-22T13:28:46;33.10;99.90
11091;DHT22;5599;52.210;21.046;2023-06-22T13:31:15;33.00;99.90
11091;DHT22;5599;52.210;21.046;2023-06-22T13:33:44;33.00;99.90
11091;DHT22;5599;52.210;21.046;2023-06-22T13:36:17;33.00;99.90
11091;DHT22;5599;52.210;21.046;2023-06-22T13:38:46;32.70;39.20
11091;DHT22;5599;52.210;21.046;2023-06-22T13:41:15;32.50;99.90
11091;DHT22;5599;52.210;21.046;2023-06-22T13:43:44;32.50;99.90
11091;DHT22;5599;52.210;21.046;2023-06-22T13:46:13;32.30;99.90
11091;DHT22;5599;52.210;21.046;2023-06-22T13:48:43;32.30;99.90
11091;DHT22;5599;52.210;21.046;2023-06-22T13:51:12;32.10;99.90
11091;DHT22;5599;52.210;21.046;2023-06-22T13:53:43;32.00;99.90
11091;DHT22;5599;52.210;21.046;2023-06-22T13:56:12;32.00;99.90
11091;DHT22;5599;52.210;21.046;2023-06-22T13:58:41;31.80;99.90
11091;DHT22;5599;52.210;21.046;2023-06-22T14:01:11;32.00;1.00
11091;DHT22;5599;52.210;21.046;2023-06-22T14:03:44;32.00;99.90
11091;DHT22;5599;52.210;21.046;2023-06-22T14:06:14;31.90;99.90
11091;DHT22;5599;52.210;21.046;2023-06-22T14:08:45;31.70;99.90
11091;DHT22;5599;52.210;21.046;2023-06-22T14:11:15;31.60;99.90
11091;DHT22;5599;52.210;21.046;2023-06-22T14:13:50;31.40;99.90
11091;DHT22;5599;52.210;21.046;2023-06-22T14:16:19;31.30;99.90
11091;DHT22;5599;52.210;21.046;2023-06-22T14:18:49;31.40;99.90
11091;DHT22;5599;52.210;21.046;2023-06-22T14:21:21;31.50;99.90
11091;DHT22;5599;52.210;21.046;2023-06-22T14:23:52;31.40;1.00
11091;DHT22;5599;52.210;21.046;2023-06-22T14:26:21;31.50;99.90
11091;DHT22;5599;52.210;21.046;2023-06-22T14:28:51;31.50;99.90
11091;DHT22;5599;52.210;21.046;2023-06-22T14:31:21;31.30;99.90
11091;DHT22;5599;52.210;21.046;2023-06-22T14:33:50;31.10;99.90
11091;DHT22;5599;52.210;21.046;2023-06-22T14:36:20;30.90;1.00
11091;DHT22;5599;52.210;21.046;2023-06-22T14:38:49;30.80;48.10
11091;DHT22;5599;52.210;21.046;2023-06-22T14:41:20;30.80;1.00
11091;DHT22;5599;52.210;21.046;2023-06-22T14:43:50;31.00;99.90
11091;DHT22;5599;52.210;21.046;2023-06-22T14:46:19;31.20;99.90
11091;DHT22;5599;52.210;21.046;2023-06-22T14:48:48;31.30;99.90
11091;DHT22;5599;52.210;21.046;2023-06-22T14:51:18;31.10;21.00
11091;DHT22;5599;52.210;21.046;2023-06-22T14:53:47;30.80;79.30
11091;DHT22;5599;52.210;21.046;2023-06-22T14:56:16;30.50;99.90
11091;DHT22;5599;52.210;21.046;2023-06-22T14:58:47;30.60;99.90
11091;DHT22;5599;52.210;21.046;2023-06-22T15:01:17;30.80;99.90
11091;DHT22;5599;52.210;21.046;2023-06-22T15:03:47;31.10;99.90
11091;DHT22;5599;52.210;21.046;2023-06-22T15:06:16;31.20;99.90
11091;DHT22;5599;52.210;21.046;2023-06-22T15:08:45;31.30;1.00
11091;DHT22;5599;52.210;21.046;2023-06-22T15:11:15;31.20;99.90
11091;DHT22;5599;52.210;21.046;2023-06-22T15:13:50;31.00;99.90
11091;DHT22;5599;52.210;21.046;2023-06-22T15:16:19;30.80;99.90
11091;DHT22;5599;52.210;21.046;2023-06-22T15:18:48;30.80;99.90
11091;DHT22;5599;52.210;21.046;2023-06-22T15:21:18;30.80;1.00
11091;DHT22;5599;52.210;21.046;2023-06-22T15:23:47;30.80;99.90
11091;DHT22;5599;52.210;21.046;2023-06-22T15:26:16;30.80;99.90
11091;DHT22;5599;52.210;21.046;2023-06-22T15:28:45;30.80;99.90
11091;DHT22;5599;52.210;21.046;2023-06-22T15:31:17;30.80;99.90
11091;DHT22;5599;52.210;21.046;2023-06-22T15:33:46;30.80;99.90
11091;DHT22;5599;52.210;21.046;2023-06-22T15:36:15;30.60;99.90
11091;DHT22;5599;52.210;21.046;2023-06-22T15:38:44;30.60;1.00
11091;DHT22;5599;52.210;21.046;2023-06-22T15:41:14;30.60;99.90
11091;DHT22;5599;52.210;21.046;2023-06-22T15:43:44;30.80;1.00
11091;DHT22;5599;52.210;21.046;2023-06-22T15:46:13;30.80;99.90
11091;DHT22;5599;52.210;21.046;2023-06-22T15:48:45;30.80;99.90
11091;DHT22;5599;52.210;21.046;2023-06-22T15:51:17;30.60;1.00
11091;DHT22;5599;52.210;21.046;2023-06-22T15:53:46;30.40;99.90
11091;DHT22;5599;52.210;21.046;2023-06-22T15:56:15;30.40;1.00